KLYO/LYO METAR and TAF weather

Enter ICAO airport designator
Station Type Date Time Source
KLYO METAR 2019/05/26 01:35 UTC NOAA

KLYO 260135Z AUTO 35005KT 5SM RA BR SCT021 BKN055 OVC065 17/16 A3006 RMK AO2 P0054 T01730160


Station Type Date Time Source
KLYO Decoded METAR 2019/05/26 01:35 UTC NOAA

Station name not available
May 25, 2019 - 09:35 PM EDT / 2019.05.26 0135 UTC
Wind: from the N (350 degrees) at 6 MPH (5 KT):0
Visibility: 5 mile(s):0
Sky conditions: overcast
Weather: rain; mist
Precipitation last hour: 0.54 inches
Temperature: 63.1 F (17.3 C)
Dew Point: 60.8 F (16.0 C)
Relative Humidity: 92%
Pressure (altimeter): 30.06 in. Hg (1017 hPa)
ob: KLYO 260135Z AUTO 35005KT 5SM RA BR SCT021 BKN055 OVC065 17/16 A3006 RMK AO2 P0054 T01730160
cycle: 1

Station Type Date Time Source
KLYO TAF UTC NOAA

Error!

Example: see airport list